Time;durP1;ratioP1;P1;durP2;ratioP2;P2;SDS_P1;SDS_P2;PMS_P1;PMS_P2;Temp;Humidity;BMP_temperature;BMP_pressure;BME280_temperature;BME280_humidity;BME280_pressure;Samples;Min_cycle;Max_cycle;Signal;HPM_P1;HPM_P2
2022/12/11 00:01:32;;;;;;;;;;;-1.90;99.90;;;;;;4989723;28;1091;-60
2022/12/11 00:03:58;;;;;;;;;;;-2.00;99.90;;;;;;4989087;28;1162;-60
2022/12/11 00:06:24;;;;;;;;;;;-1.90;99.90;;;;;;4987384;28;1217;-60
2022/12/11 00:08:51;;;;;;;;;;;-1.70;99.90;;;;;;5004826;28;1902;-60
2022/12/11 00:11:17;;;;;;;;;;;-2.00;99.90;;;;;;4988915;28;1025;-60
2022/12/11 00:13:43;;;;;;;;;;;-2.00;99.90;;;;;;4994383;28;1083;-60
2022/12/11 00:16:08;;;;;;;;;;;-1.90;99.90;;;;;;5007846;28;1136;-60
2022/12/11 00:18:34;;;;;;;;;;;-1.90;99.90;;;;;;5012396;28;1106;-60
2022/12/11 00:21:01;;;;;;;;;;;-1.40;99.90;;;;;;5012671;28;1114;-60
2022/12/11 00:23:27;;;;;;;;;;;-1.00;99.90;;;;;;5009999;28;1176;-59
2022/12/11 00:25:53;;;;;;;;;;;-2.00;99.90;;;;;;4975049;28;1138;-60
2022/12/11 00:28:19;;;;;;;;;;;-1.90;99.90;;;;;;4992883;28;1948;-60
2022/12/11 00:30:45;;;;;;;;;;;-2.00;99.90;;;;;;4975603;28;1112;-59
2022/12/11 00:33:11;;;;;;;;;;;-2.20;99.90;;;;;;4992250;28;1091;-60
2022/12/11 00:35:37;;;;;;;;;;;-2.10;99.90;;;;;;4992970;28;1139;-60
2022/12/11 00:38:02;;;;;;;;;;;-2.10;99.90;;;;;;4993139;28;1326;-59
2022/12/11 00:40:28;;;;;;;;;;;-2.10;99.90;;;;;;4992859;28;1588;-60
2022/12/11 00:42:54;;;;;;;;;;;-1.60;99.90;;;;;;4992097;28;1158;-59
2022/12/11 00:45:20;;;;;;;;;;;-1.40;99.90;;;;;;4992435;28;1186;-60
2022/12/11 00:47:45;;;;;;;;;;;-1.70;99.90;;;;;;4992781;28;1981;-60
2022/12/11 00:50:11;;;;;;;;;;;-2.10;99.90;;;;;;4992447;28;1190;-59
2022/12/11 00:52:37;;;;;;;;;;;-1.80;99.90;;;;;;5011008;28;1103;-60
2022/12/11 00:55:03;;;;;;;;;;;-1.90;99.90;;;;;;5002278;28;1153;-60
2022/12/11 00:57:29;;;;;;;;;;;-2.10;99.90;;;;;;4986971;28;1130;-60
2022/12/11 00:59:54;;;;;;;;;;;-2.10;99.90;;;;;;4991747;28;1111;-59
2022/12/11 01:02:20;;;;;;;;;;;-1.00;99.90;;;;;;4995528;28;1061;-60
2022/12/11 01:04:46;;;;;;;;;;;-2.00;99.90;;;;;;4991874;28;1320;-60
2022/12/11 01:07:12;;;;;;;;;;;-1.90;99.90;;;;;;4990200;28;1984;-59
2022/12/11 01:12:21;;;;;;;;;;;-1.30;99.90;;;;;;4974559;28;1033;-59
2022/12/11 01:14:47;;;;;;;;;;;-1.90;99.90;;;;;;5005699;28;1129;-60
2022/12/11 01:17:13;;;;;;;;;;;-1.00;99.90;;;;;;5000860;28;1143;-60
2022/12/11 01:19:38;;;;;;;;;;;-2.00;99.90;;;;;;4992019;28;1312;-60
2022/12/11 01:22:04;;;;;;;;;;;-2.00;99.90;;;;;;4974049;28;1204;-60
2022/12/11 01:24:30;;;;;;;;;;;-1.90;99.90;;;;;;4992141;28;1087;-60
2022/12/11 01:26:55;;;;;;;;;;;-1.80;99.90;;;;;;4973851;28;1117;-60
2022/12/11 01:29:21;;;;;;;;;;;-1.90;99.90;;;;;;4991387;28;1910;-59
2022/12/11 01:31:47;;;;;;;;;;;-1.80;99.90;;;;;;4992244;28;1178;-60
2022/12/11 01:34:12;;;;;;;;;;;-1.80;99.90;;;;;;4975073;28;1930;-60
2022/12/11 01:36:38;;;;;;;;;;;-1.00;99.90;;;;;;5010994;28;1114;-60
2022/12/11 01:39:04;;;;;;;;;;;-1.60;99.90;;;;;;4993451;28;1662;-60
2022/12/11 01:41:29;;;;;;;;;;;-1.30;99.90;;;;;;4991116;28;1158;-60
2022/12/11 01:44:00;;;;;;;;;;;-1.50;99.90;;;;;;4991574;28;1182;-60
2022/12/11 01:46:26;;;;;;;;;;;-1.50;99.90;;;;;;4991987;28;1122;-60
2022/12/11 01:48:52;;;;;;;;;;;-1.40;99.90;;;;;;4990676;28;1971;-60
2022/12/11 01:51:18;;;;;;;;;;;-1.50;99.90;;;;;;4991892;28;1203;-60
2022/12/11 01:53:46;;;;;;;;;;;-1.30;99.90;;;;;;5006122;28;1172;-60
2022/12/11 01:56:12;;;;;;;;;;;-1.50;99.90;;;;;;5010258;28;1102;-60
2022/12/11 01:58:40;;;;;;;;;;;-1.60;99.90;;;;;;5011250;28;1090;-60
2022/12/11 02:01:06;;;;;;;;;;;-1.60;99.90;;;;;;4987882;28;1166;-60
2022/12/11 02:03:32;;;;;;;;;;;-1.60;99.90;;;;;;5006116;28;1155;-60
2022/12/11 02:05:59;;;;;;;;;;;-1.60;99.90;;;;;;4999991;28;1351;-60
2022/12/11 02:08:25;;;;;;;;;;;-1.50;99.90;;;;;;4991146;28;2005;-60
2022/12/11 02:11:00;;;;;;;;;;;-1.50;99.90;;;;;;4972682;28;1081;-60
2022/12/11 02:13:30;;;;;;;;;;;-1.40;99.90;;;;;;5004544;28;1170;-60
2022/12/11 02:15:55;;;;;;;;;;;-1.40;99.90;;;;;;4991396;28;1158;-60
2022/12/11 02:18:30;;;;;;;;;;;-1.00;99.90;;;;;;4989869;28;1102;-60
2022/12/11 02:21:05;;;;;;;;;;;-1.50;99.90;;;;;;5003021;28;1198;-60
2022/12/11 02:23:35;;;;;;;;;;;-1.40;99.90;;;;;;5011050;28;1079;-60
2022/12/11 02:26:20;;;;;;;;;;;-1.40;99.90;;;;;;5010439;28;1169;-60
2022/12/11 02:28:46;;;;;;;;;;;-1.30;99.90;;;;;;5005140;28;1914;-60
2022/12/11 02:31:15;;;;;;;;;;;-1.30;99.90;;;;;;4992020;28;1107;-60
2022/12/11 02:33:44;;;;;;;;;;;-1.00;99.90;;;;;;5000238;28;1102;-60
2022/12/11 02:36:11;;;;;;;;;;;-1.30;99.90;;;;;;4990773;28;1126;-60
2022/12/11 02:38:38;;;;;;;;;;;-1.20;99.90;;;;;;4989506;28;1599;-60
2022/12/11 02:41:06;;;;;;;;;;;-1.20;99.90;;;;;;4990519;28;1803;-60
2022/12/11 02:43:33;;;;;;;;;;;-1.20;99.90;;;;;;4990874;28;1099;-60
2022/12/11 02:45:59;;;;;;;;;;;-1.30;99.90;;;;;;4993641;28;1154;-60
2022/12/11 02:48:25;;;;;;;;;;;-1.20;99.90;;;;;;5009997;28;1964;-60
2022/12/11 02:50:54;;;;;;;;;;;-1.20;99.90;;;;;;5010208;28;1216;-60
2022/12/11 02:53:22;;;;;;;;;;;-1.10;99.90;;;;;;5009440;28;1090;-60
2022/12/11 02:55:50;;;;;;;;;;;-1.10;99.90;;;;;;4991222;28;1112;-60
2022/12/11 02:58:18;;;;;;;;;;;-1.00;99.90;;;;;;4990427;28;1130;-60
2022/12/11 03:00:45;;;;;;;;;;;-1.00;99.90;;;;;;4955919;28;1124;-60
2022/12/11 03:03:11;;;;;;;;;;;-0.50;99.90;;;;;;4989827;28;1146;-60
2022/12/11 03:05:37;;;;;;;;;;;-0.60;99.90;;;;;;5000240;28;1119;-60
2022/12/11 03:08:02;;;;;;;;;;;-0.80;99.90;;;;;;4972187;28;1915;-60
2022/12/11 03:10:28;;;;;;;;;;;-0.70;99.90;;;;;;4989785;28;1111;-60
2022/12/11 03:12:55;;;;;;;;;;;-0.40;99.90;;;;;;4989274;28;1025;-60
2022/12/11 03:15:23;;;;;;;;;;;-0.70;99.90;;;;;;5008410;28;1296;-60
2022/12/11 03:18:00;;;;;;;;;;;-0.60;99.90;;;;;;5000065;28;1079;-60
2022/12/11 03:20:33;;;;;;;;;;;-0.60;99.90;;;;;;4987517;28;1223;-60
2022/12/11 03:23:10;;;;;;;;;;;-0.60;99.90;;;;;;4991388;28;1222;-60
2022/12/11 03:25:40;;;;;;;;;;;-0.60;99.90;;;;;;5009457;28;1161;-60
2022/12/11 03:28:10;;;;;;;;;;;-0.50;99.90;;;;;;5008715;28;1914;-60
2022/12/11 03:30:36;;;;;;;;;;;0.20;99.90;;;;;;4999559;28;1142;-60
2022/12/11 03:33:05;;;;;;;;;;;-0.10;99.90;;;;;;4989616;28;1080;-60
2022/12/11 03:35:34;;;;;;;;;;;-0.50;99.90;;;;;;4989383;28;1127;-60
2022/12/11 03:38:03;;;;;;;;;;;-0.50;99.90;;;;;;4989633;28;1235;-60
2022/12/11 03:40:30;;;;;;;;;;;-0.30;99.90;;;;;;4972011;28;1596;-60
2022/12/11 03:42:56;;;;;;;;;;;-0.50;99.90;;;;;;4989255;28;1088;-60
2022/12/11 03:45:23;;;;;;;;;;;-0.50;99.90;;;;;;4989924;28;1162;-60
2022/12/11 03:47:50;;;;;;;;;;;-0.50;99.90;;;;;;4989271;28;1922;-60
2022/12/11 03:50:17;;;;;;;;;;;-0.60;99.90;;;;;;4989249;28;1079;-60
2022/12/11 03:52:43;;;;;;;;;;;-0.70;99.90;;;;;;4993790;28;1142;-60
2022/12/11 03:55:10;;;;;;;;;;;-0.80;99.90;;;;;;4994506;28;1190;-60
2022/12/11 03:57:36;;;;;;;;;;;-0.70;99.90;;;;;;4993252;28;1241;-60
2022/12/11 04:00:05;;;;;;;;;;;-0.50;99.90;;;;;;4995139;28;1201;-60
2022/12/11 04:02:37;;;;;;;;;;;-0.90;99.90;;;;;;5012376;28;1165;-60
2022/12/11 04:05:03;;;;;;;;;;;-0.70;99.90;;;;;;5006956;28;1079;-60
2022/12/11 04:07:30;;;;;;;;;;;-0.90;99.90;;;;;;4976159;28;1907;-60
2022/12/11 04:09:55;;;;;;;;;;;-1.00;99.90;;;;;;4992566;28;1015;-60
2022/12/11 04:12:21;;;;;;;;;;;-1.00;99.90;;;;;;5002048;28;1057;-60
2022/12/11 04:15:02;;;;;;;;;;;-0.90;99.90;;;;;;4982338;28;1220;-60
2022/12/11 04:25:41;;;;;;;;;;;-0.80;99.90;;;;;;5012582;28;1162;-60
2022/12/11 04:28:07;;;;;;;;;;;-0.40;99.90;;;;;;5012969;28;1910;-60
2022/12/11 04:30:32;;;;;;;;;;;-0.80;99.90;;;;;;5005082;28;1106;-60
2022/12/11 04:32:58;;;;;;;;;;;-0.70;99.90;;;;;;4997404;28;1166;-60
2022/12/11 04:35:24;;;;;;;;;;;-0.70;99.90;;;;;;5012660;28;1159;-60
2022/12/11 04:37:50;;;;;;;;;;;-0.70;99.90;;;;;;4986574;28;1389;-60
2022/12/11 04:40:17;;;;;;;;;;;-0.60;99.90;;;;;;4992522;28;1580;-60
2022/12/11 04:42:43;;;;;;;;;;;-0.60;99.90;;;;;;5011309;28;1115;-60
2022/12/11 04:45:09;;;;;;;;;;;-0.60;99.90;;;;;;5011782;28;1146;-60
2022/12/11 04:47:35;;;;;;;;;;;-0.50;99.90;;;;;;5012242;28;1971;-60
2022/12/11 04:50:01;;;;;;;;;;;0.10;99.90;;;;;;5001022;28;1158;-60
2022/12/11 04:52:27;;;;;;;;;;;-0.40;99.90;;;;;;5010575;28;1111;-60
2022/12/11 04:54:52;;;;;;;;;;;-0.40;99.90;;;;;;5011608;28;1011;-60
2022/12/11 04:57:20;;;;;;;;;;;-0.30;99.90;;;;;;5012496;28;1118;-60
2022/12/11 04:59:46;;;;;;;;;;;-0.40;99.90;;;;;;5004367;28;1148;-60
2022/12/11 05:02:11;;;;;;;;;;;-0.10;99.90;;;;;;5007216;28;1127;-60
2022/12/11 05:04:37;;;;;;;;;;;0.30;99.90;;;;;;4992092;28;1309;-60
2022/12/11 05:07:03;;;;;;;;;;;-0.30;99.90;;;;;;4995227;28;1350;-60
2022/12/11 05:09:29;;;;;;;;;;;0.20;99.90;;;;;;5002445;28;1906;-60
2022/12/11 05:11:54;;;;;;;;;;;-0.20;99.90;;;;;;4991938;28;1255;-61
2022/12/11 05:14:20;;;;;;;;;;;-0.10;99.90;;;;;;4992576;28;1218;-60
2022/12/11 05:16:46;;;;;;;;;;;0.40;99.90;;;;;;4991414;28;1331;-60
2022/12/11 05:19:12;;;;;;;;;;;-0.30;99.90;;;;;;4996565;28;1214;-61
2022/12/11 05:21:37;;;;;;;;;;;-0.40;99.90;;;;;;4982938;28;1131;-60
2022/12/11 05:24:03;;;;;;;;;;;-0.40;99.90;;;;;;4993167;28;1230;-60
2022/12/11 05:26:29;;;;;;;;;;;-0.50;99.90;;;;;;4977860;28;1297;-60
2022/12/11 05:28:55;;;;;;;;;;;-0.50;99.90;;;;;;4992195;28;1984;-60
2022/12/11 05:31:22;;;;;;;;;;;-0.60;99.90;;;;;;4992072;28;1127;-60
2022/12/11 05:33:49;;;;;;;;;;;0.00;99.90;;;;;;4990880;28;1115;-60
2022/12/11 05:36:16;;;;;;;;;;;-0.20;99.90;;;;;;5010265;28;1143;-60
2022/12/11 05:38:41;;;;;;;;;;;-0.60;99.90;;;;;;4995964;28;1634;-60
2022/12/11 05:41:07;;;;;;;;;;;-0.60;99.90;;;;;;4991280;28;1181;-60
2022/12/11 05:43:34;;;;;;;;;;;-0.60;99.90;;;;;;5003957;28;1175;-60
2022/12/11 05:46:04;;;;;;;;;;;-0.40;99.90;;;;;;5011194;28;1158;-60
2022/12/11 05:48:30;;;;;;;;;;;-0.60;99.90;;;;;;5010399;28;1910;-60
2022/12/11 05:51:02;;;;;;;;;;;-0.50;99.90;;;;;;5007900;28;1087;-60
2022/12/11 05:53:28;;;;;;;;;;;-0.40;99.90;;;;;;4973782;28;1115;-60
2022/12/11 05:55:54;;;;;;;;;;;-0.30;99.90;;;;;;4990843;28;1147;-60
2022/12/11 05:58:20;;;;;;;;;;;-0.30;99.90;;;;;;4991672;28;1103;-60
2022/12/11 06:00:46;;;;;;;;;;;0.10;99.90;;;;;;4997624;28;1187;-60
2022/12/11 06:03:12;;;;;;;;;;;-0.20;99.90;;;;;;5010263;28;1076;-60
2022/12/11 06:05:38;;;;;;;;;;;-0.20;99.90;;;;;;5002601;28;1128;-60
2022/12/11 06:08:04;;;;;;;;;;;0.30;99.90;;;;;;4991100;28;1961;-60
2022/12/11 06:10:30;;;;;;;;;;;-0.10;99.90;;;;;;4990512;28;1160;-60
2022/12/11 06:12:55;;;;;;;;;;;0.00;99.90;;;;;;5004248;28;1076;-60
2022/12/11 06:15:21;;;;;;;;;;;0.20;99.90;;;;;;4990919;28;1544;-60
2022/12/11 06:17:47;;;;;;;;;;;0.20;99.90;;;;;;4990143;28;1119;-60
2022/12/11 06:20:12;;;;;;;;;;;0.00;99.90;;;;;;4993359;28;1122;-60
2022/12/11 06:22:38;;;;;;;;;;;0.00;99.90;;;;;;5010539;28;1141;-60
2022/12/11 06:25:04;;;;;;;;;;;0.00;99.90;;;;;;5010138;28;1027;-61
2022/12/11 06:27:30;;;;;;;;;;;0.00;99.90;;;;;;4997772;28;1995;-61
2022/12/11 06:29:56;;;;;;;;;;;-0.10;99.90;;;;;;4990106;28;1178;-61
2022/12/11 06:32:21;;;;;;;;;;;-0.20;99.90;;;;;;4991547;28;1293;-60
2022/12/11 06:34:47;;;;;;;;;;;-0.20;99.90;;;;;;4991991;28;1162;-60
2022/12/11 06:37:12;;;;;;;;;;;-0.10;99.90;;;;;;4989299;28;1421;-61
2022/12/11 06:39:38;;;;;;;;;;;-0.10;99.90;;;;;;4990327;28;1305;-61
2022/12/11 06:42:04;;;;;;;;;;;0.00;99.90;;;;;;4990941;28;1283;-60
2022/12/11 06:44:29;;;;;;;;;;;0.00;99.90;;;;;;4995295;28;1122;-61
2022/12/11 06:46:55;;;;;;;;;;;0.10;99.90;;;;;;4992467;28;1091;-60
2022/12/11 06:49:21;;;;;;;;;;;-0.30;99.90;;;;;;5008765;28;1934;-61
2022/12/11 06:51:47;;;;;;;;;;;-0.20;99.90;;;;;;4988715;28;1107;-61
2022/12/11 06:54:12;;;;;;;;;;;-0.20;99.90;;;;;;4995348;28;1117;-61
2022/12/11 06:56:38;;;;;;;;;;;-0.10;99.90;;;;;;5010182;28;1090;-61
2022/12/11 06:59:03;;;;;;;;;;;-0.10;99.90;;;;;;5009409;28;1174;-61
2022/12/11 07:01:29;;;;;;;;;;;-0.10;99.90;;;;;;5008131;28;1079;-61
2022/12/11 07:03:56;;;;;;;;;;;-0.20;99.90;;;;;;5009182;28;1083;-61
2022/12/11 07:06:22;;;;;;;;;;;-0.20;99.90;;;;;;4994756;28;1237;-60
2022/12/11 07:08:47;;;;;;;;;;;-0.20;99.90;;;;;;4989835;28;1910;-61
2022/12/11 07:11:14;;;;;;;;;;;-0.20;99.90;;;;;;4990111;28;1162;-60
2022/12/11 07:13:40;;;;;;;;;;;0.20;99.90;;;;;;4994458;28;1189;-60
2022/12/11 07:16:09;;;;;;;;;;;0.60;99.90;;;;;;5009714;28;1114;-60
2022/12/11 07:18:35;;;;;;;;;;;-0.20;99.90;;;;;;5009481;28;1173;-60
2022/12/11 07:21:01;;;;;;;;;;;-0.10;99.90;;;;;;4992650;28;1025;-60
2022/12/11 07:23:27;;;;;;;;;;;-0.10;99.90;;;;;;4990113;28;1091;-60
2022/12/11 07:25:53;;;;;;;;;;;0.30;99.90;;;;;;4989965;28;1146;-60
2022/12/11 07:28:19;;;;;;;;;;;0.20;99.90;;;;;;4991055;28;1919;-60
2022/12/11 07:30:44;;;;;;;;;;;0.10;99.90;;;;;;4989553;28;1297;-60
2022/12/11 07:33:10;;;;;;;;;;;-0.10;99.90;;;;;;4989516;28;1189;-60
2022/12/11 07:35:36;;;;;;;;;;;-0.10;99.90;;;;;;4990135;28;1206;-60
2022/12/11 07:38:01;;;;;;;;;;;-0.10;99.90;;;;;;4989253;28;1283;-60
2022/12/11 07:40:27;;;;;;;;;;;0.00;99.90;;;;;;4988075;28;1576;-60
2022/12/11 07:42:53;;;;;;;;;;;0.00;99.90;;;;;;4989921;28;1186;-60
2022/12/11 07:45:18;;;;;;;;;;;0.10;99.90;;;;;;4989908;28;1087;-60
2022/12/11 07:47:44;;;;;;;;;;;0.00;99.90;;;;;;4994729;28;1898;-60
2022/12/11 07:50:10;;;;;;;;;;;0.00;99.90;;;;;;4996023;28;1297;-60
2022/12/11 07:52:35;;;;;;;;;;;0.30;99.90;;;;;;4990733;28;1146;-60
2022/12/11 07:55:01;;;;;;;;;;;0.00;99.90;;;;;;4990504;28;1238;-61
2022/12/11 07:57:28;;;;;;;;;;;0.00;99.90;;;;;;4989680;28;1107;-61
2022/12/11 07:59:54;;;;;;;;;;;0.00;99.90;;;;;;4989500;28;1126;-61
2022/12/11 08:02:20;;;;;;;;;;;0.30;99.90;;;;;;4988730;28;1114;-61
2022/12/11 08:04:46;;;;;;;;;;;0.10;99.90;;;;;;4988987;28;1275;-60
2022/12/11 08:07:12;;;;;;;;;;;0.70;99.90;;;;;;4989415;28;1185;-60
2022/12/11 08:09:38;;;;;;;;;;;0.00;99.90;;;;;;4988678;28;1935;-60
2022/12/11 08:12:04;;;;;;;;;;;0.00;99.90;;;;;;4994035;28;1103;-61
2022/12/11 08:14:29;;;;;;;;;;;0.00;99.90;;;;;;4984039;28;1231;-61
2022/12/11 08:16:56;;;;;;;;;;;0.10;99.90;;;;;;5008478;28;1102;-60
2022/12/11 08:19:22;;;;;;;;;;;0.20;99.90;;;;;;5009298;28;1173;-61
2022/12/11 08:21:47;;;;;;;;;;;0.20;99.90;;;;;;5008185;28;1094;-60
2022/12/11 08:24:15;;;;;;;;;;;0.10;99.90;;;;;;5007125;28;1177;-60
2022/12/11 08:26:41;;;;;;;;;;;0.10;99.90;;;;;;4989446;28;1127;-60
2022/12/11 08:29:06;;;;;;;;;;;0.10;99.90;;;;;;4988820;28;1910;-60
2022/12/11 08:31:32;;;;;;;;;;;0.20;99.90;;;;;;4991279;28;1079;-60
2022/12/11 08:33:58;;;;;;;;;;;0.20;99.90;;;;;;4979402;28;1249;-60
2022/12/11 08:36:24;;;;;;;;;;;0.30;99.90;;;;;;4990460;28;1317;-60
2022/12/11 08:38:50;;;;;;;;;;;0.30;99.90;;;;;;4992525;28;1432;-60
2022/12/11 08:41:17;;;;;;;;;;;0.30;99.90;;;;;;4993298;28;1048;-60
2022/12/11 08:43:43;;;;;;;;;;;0.30;99.90;;;;;;4992792;28;1206;-60
2022/12/11 08:46:11;;;;;;;;;;;0.30;99.90;;;;;;4993869;28;1126;-60
2022/12/11 08:48:37;;;;;;;;;;;0.40;99.90;;;;;;4992277;28;1912;-60
2022/12/11 08:51:05;;;;;;;;;;;0.40;99.90;;;;;;4993901;28;1303;-61
2022/12/11 08:53:31;;;;;;;;;;;0.40;99.90;;;;;;4981840;28;1305;-61
2022/12/11 08:56:04;;;;;;;;;;;0.40;99.90;;;;;;4993032;28;1146;-60
2022/12/11 08:58:30;;;;;;;;;;;0.50;99.90;;;;;;5004619;28;1184;-60
2022/12/11 09:00:56;;;;;;;;;;;0.30;99.90;;;;;;5012437;28;1158;-60
2022/12/11 09:03:21;;;;;;;;;;;0.50;99.90;;;;;;5012262;28;1189;-60
2022/12/11 09:05:47;;;;;;;;;;;0.50;99.90;;;;;;5001323;28;1304;-60
2022/12/11 09:08:13;;;;;;;;;;;0.50;99.90;;;;;;4974740;28;2009;-60
2022/12/11 09:10:39;;;;;;;;;;;0.50;99.90;;;;;;4992520;28;1253;-60
2022/12/11 09:13:04;;;;;;;;;;;0.50;99.90;;;;;;4974263;28;1160;-60
2022/12/11 09:15:30;;;;;;;;;;;0.50;99.90;;;;;;4999642;28;1117;-61
2022/12/11 09:17:56;;;;;;;;;;;0.70;99.90;;;;;;4992371;28;1142;-60
2022/12/11 09:20:21;;;;;;;;;;;0.60;99.90;;;;;;4991492;28;944;-60
2022/12/11 09:22:47;;;;;;;;;;;0.70;99.90;;;;;;4992280;28;1099;-60
2022/12/11 09:25:13;;;;;;;;;;;0.60;99.90;;;;;;4992119;28;1121;-61
2022/12/11 09:27:38;;;;;;;;;;;0.60;99.90;;;;;;4991443;28;1974;-61
2022/12/11 09:30:04;;;;;;;;;;;0.60;99.90;;;;;;4991566;28;1209;-61
2022/12/11 09:32:30;;;;;;;;;;;0.70;99.90;;;;;;4992462;28;1269;-61
2022/12/11 09:34:56;;;;;;;;;;;0.70;99.90;;;;;;4991666;28;1268;-61
2022/12/11 09:37:21;;;;;;;;;;;0.70;99.90;;;;;;4994120;28;1365;-61
2022/12/11 09:39:47;;;;;;;;;;;0.70;99.90;;;;;;4990724;28;1352;-61
2022/12/11 09:42:17;;;;;;;;;;;0.70;99.90;;;;;;4992401;28;1214;-61
2022/12/11 09:44:45;;;;;;;;;;;0.90;99.90;;;;;;4988969;28;1190;-60
2022/12/11 09:47:15;;;;;;;;;;;0.70;99.90;;;;;;4992548;28;1213;-61
2022/12/11 09:49:42;;;;;;;;;;;0.70;99.90;;;;;;4997415;28;1906;-61
2022/12/11 09:52:18;;;;;;;;;;;0.80;99.90;;;;;;5006964;28;1240;-61
2022/12/11 09:54:48;;;;;;;;;;;0.80;99.90;;;;;;4993907;28;1232;-61
2022/12/11 09:57:28;;;;;;;;;;;0.80;99.90;;;;;;4989129;28;1127;-61
2022/12/11 10:00:03;;;;;;;;;;;0.80;99.90;;;;;;4995131;28;1191;-61
2022/12/11 10:02:37;;;;;;;;;;;0.80;99.90;;;;;;4990987;28;1201;-61
2022/12/11 10:05:12;;;;;;;;;;;0.90;99.90;;;;;;4992342;28;1229;-61
2022/12/11 10:07:50;;;;;;;;;;;0.80;99.90;;;;;;4992569;28;1914;-61
2022/12/11 10:10:16;;;;;;;;;;;0.90;99.90;;;;;;4994200;28;1313;-61
2022/12/11 10:12:48;;;;;;;;;;;0.80;99.90;;;;;;4990597;28;1242;-61
2022/12/11 10:15:24;;;;;;;;;;;0.80;99.90;;;;;;4989743;28;1124;-60
2022/12/11 10:17:52;;;;;;;;;;;0.80;99.90;;;;;;4990691;28;1320;-61
2022/12/11 10:20:22;;;;;;;;;;;0.80;99.90;;;;;;4992361;28;1189;-61
2022/12/11 10:22:49;;;;;;;;;;;0.90;99.90;;;;;;4990381;28;1304;-61
2022/12/11 10:25:18;;;;;;;;;;;0.90;99.90;;;;;;4987498;28;3163;-61
2022/12/11 10:27:44;;;;;;;;;;;0.80;99.90;;;;;;4982261;28;3125;-61
2022/12/11 10:30:17;;;;;;;;;;;1.00;99.90;;;;;;4989918;28;3028;-61
2022/12/11 10:33:01;;;;;;;;;;;0.90;99.90;;;;;;4990581;28;1312;-61
2022/12/11 10:35:32;;;;;;;;;;;0.90;99.90;;;;;;4989346;28;1219;-60
2022/12/11 10:38:08;;;;;;;;;;;0.90;99.90;;;;;;4992299;28;1270;-61
2022/12/11 10:40:35;;;;;;;;;;;1.00;99.90;;;;;;4991563;28;1411;-61
2022/12/11 10:43:00;;;;;;;;;;;1.20;99.90;;;;;;4971431;28;2707;-61
2022/12/11 10:45:26;;;;;;;;;;;1.00;99.90;;;;;;4990502;28;1182;-61
2022/12/11 10:48:00;;;;;;;;;;;1.00;99.90;;;;;;4990563;28;1906;-61
2022/12/11 10:50:26;;;;;;;;;;;1.00;99.90;;;;;;4990593;28;1103;-61
2022/12/11 10:52:52;;;;;;;;;;;1.00;99.90;;;;;;4995020;28;1190;-61
2022/12/11 10:55:24;;;;;;;;;;;1.10;99.90;;;;;;4989709;28;1095;-61
2022/12/11 10:57:56;;;;;;;;;;;1.10;99.90;;;;;;4978960;28;1435;-61
2022/12/11 11:00:28;;;;;;;;;;;1.10;99.90;;;;;;4988686;28;1173;-61
2022/12/11 11:02:53;;;;;;;;;;;1.10;99.90;;;;;;4989869;28;1193;-61
2022/12/11 11:05:28;;;;;;;;;;;1.20;99.90;;;;;;4988681;28;1327;-61
2022/12/11 11:08:02;;;;;;;;;;;1.20;99.90;;;;;;4990119;28;1907;-61
2022/12/11 11:10:28;;;;;;;;;;;1.20;99.90;;;;;;4989129;28;1119;-61
2022/12/11 11:12:54;;;;;;;;;;;1.20;99.90;;;;;;4988933;28;1258;-61
2022/12/11 11:15:20;;;;;;;;;;;1.20;99.90;;;;;;4992719;28;1309;-61
2022/12/11 11:17:47;;;;;;;;;;;1.20;99.90;;;;;;4989847;28;1197;-61
2022/12/11 11:20:16;;;;;;;;;;;1.20;99.90;;;;;;4987880;28;1498;-61
2022/12/11 11:22:44;;;;;;;;;;;1.20;99.90;;;;;;4987626;28;1194;-61
2022/12/11 11:25:16;;;;;;;;;;;1.20;99.90;;;;;;5002524;28;1098;-61
2022/12/11 11:27:44;;;;;;;;;;;1.20;99.90;;;;;;4996562;28;1911;-61
2022/12/11 11:30:17;;;;;;;;;;;1.20;99.90;;;;;;5004974;28;1112;-61
2022/12/11 11:32:43;;;;;;;;;;;1.20;99.90;;;;;;4989070;28;1102;-61
2022/12/11 11:35:10;;;;;;;;;;;1.10;99.90;;;;;;4989127;28;1144;-61
2022/12/11 11:37:40;;;;;;;;;;;1.10;99.90;;;;;;4999126;28;1342;-61
2022/12/11 11:40:12;;;;;;;;;;;1.10;99.90;;;;;;4988976;28;1535;-61
2022/12/11 11:42:42;;;;;;;;;;;1.20;99.90;;;;;;4989196;28;1107;-60
2022/12/11 11:45:15;;;;;;;;;;;1.20;99.90;;;;;;4977397;28;1214;-61
2022/12/11 11:47:47;;;;;;;;;;;1.20;99.90;;;;;;4989026;28;2020;-61
2022/12/11 11:50:16;;;;;;;;;;;1.20;99.90;;;;;;4987373;28;1214;-61
2022/12/11 11:52:49;;;;;;;;;;;1.20;99.90;;;;;;4980185;28;1257;-61
2022/12/11 11:55:19;;;;;;;;;;;1.10;99.90;;;;;;4986198;28;1277;-61
2022/12/11 11:57:48;;;;;;;;;;;1.10;99.90;;;;;;4990155;28;1297;-61
2022/12/11 12:00:14;;;;;;;;;;;1.10;99.90;;;;;;4990545;28;1214;-61
2022/12/11 12:02:40;;;;;;;;;;;1.10;99.90;;;;;;4988228;28;1253;-61
2022/12/11 12:05:10;;;;;;;;;;;1.10;99.90;;;;;;4989170;28;1378;-61
2022/12/11 12:07:43;;;;;;;;;;;1.10;99.90;;;;;;4990426;28;1930;-61
2022/12/11 12:10:15;;;;;;;;;;;1.10;99.90;;;;;;4987917;28;1190;-61
2022/12/11 12:12:41;;;;;;;;;;;1.10;99.90;;;;;;4990938;28;1206;-61
2022/12/11 12:15:13;;;;;;;;;;;1.10;99.90;;;;;;4981941;28;1293;-61
2022/12/11 12:17:51;;;;;;;;;;;1.20;99.90;;;;;;4994502;28;1289;-61
2022/12/11 12:20:38;;;;;;;;;;;1.20;99.90;;;;;;4991390;28;1238;-61
2022/12/11 12:23:10;;;;;;;;;;;1.20;99.90;;;;;;4992197;28;1218;-61
2022/12/11 12:25:42;;;;;;;;;;;1.20;99.90;;;;;;4993716;28;1269;-61
2022/12/11 12:28:19;;;;;;;;;;;1.20;99.90;;;;;;4992501;28;1918;-61
2022/12/11 12:30:54;;;;;;;;;;;1.10;99.90;;;;;;4990233;28;1246;-61
2022/12/11 12:33:26;;;;;;;;;;;1.20;99.90;;;;;;4989785;28;1328;-61
2022/12/11 12:36:09;;;;;;;;;;;1.20;99.90;;;;;;4996162;28;1181;-60
2022/12/11 12:38:42;;;;;;;;;;;1.10;99.90;;;;;;4986829;28;1667;-61
2022/12/11 12:41:23;;;;;;;;;;;1.10;99.90;;;;;;4990582;28;1072;-61
2022/12/11 12:43:55;;;;;;;;;;;1.00;99.90;;;;;;4992023;28;1087;-61
2022/12/11 12:46:42;;;;;;;;;;;1.00;99.90;;;;;;4992552;28;1230;-60
2022/12/11 12:49:11;;;;;;;;;;;1.10;99.90;;;;;;4991861;28;1970;-61
2022/12/11 12:51:37;;;;;;;;;;;1.10;99.90;;;;;;4992960;28;1210;-61
2022/12/11 12:54:05;;;;;;;;;;;1.00;99.90;;;;;;4993700;28;1245;-61
2022/12/11 12:56:32;;;;;;;;;;;1.00;99.90;;;;;;4991917;28;1249;-61
2022/12/11 12:58:57;;;;;;;;;;;1.00;99.90;;;;;;4992366;28;1111;-61
2022/12/11 13:01:25;;;;;;;;;;;1.00;99.90;;;;;;4993235;28;1123;-61
2022/12/11 13:04:04;;;;;;;;;;;1.00;99.90;;;;;;4992711;28;1111;-61
2022/12/11 13:06:32;;;;;;;;;;;0.90;99.90;;;;;;4992567;28;1197;-61
2022/12/11 13:09:08;;;;;;;;;;;0.90;99.90;;;;;;4990601;28;3174;-60
2022/12/11 13:11:35;;;;;;;;;;;1.00;99.90;;;;;;4989781;28;1281;-61
2022/12/11 13:14:00;;;;;;;;;;;1.00;99.90;;;;;;4991601;28;3055;-60
2022/12/11 13:16:33;;;;;;;;;;;1.00;99.90;;;;;;4983781;28;1071;-61
2022/12/11 13:18:59;;;;;;;;;;;1.00;99.90;;;;;;4991171;28;1905;-61
2022/12/11 13:21:25;;;;;;;;;;;1.00;99.90;;;;;;4994519;28;1309;-60
2022/12/11 13:23:50;;;;;;;;;;;1.00;99.90;;;;;;4990853;28;1221;-61
2022/12/11 13:26:28;;;;;;;;;;;1.20;99.90;;;;;;4990349;28;2675;-61
2022/12/11 13:28:53;;;;;;;;;;;1.00;99.90;;;;;;4990294;28;2092;-60
2022/12/11 13:31:19;;;;;;;;;;;0.90;99.90;;;;;;4995667;28;1249;-61
2022/12/11 13:33:47;;;;;;;;;;;1.00;99.90;;;;;;5010385;28;1110;-60
2022/12/11 13:36:13;;;;;;;;;;;1.00;99.90;;;;;;5005979;28;1254;-61
2022/12/11 13:38:44;;;;;;;;;;;1.00;99.90;;;;;;4991180;28;1374;-61
2022/12/11 13:41:11;;;;;;;;;;;1.00;99.90;;;;;;4989832;28;1150;-61
2022/12/11 13:43:39;;;;;;;;;;;1.10;99.90;;;;;;4991453;28;1249;-60
2022/12/11 13:46:07;;;;;;;;;;;1.00;99.90;;;;;;4991613;28;1285;-61
2022/12/11 13:48:42;;;;;;;;;;;1.00;99.90;;;;;;4993271;28;1903;-61
2022/12/11 13:51:14;;;;;;;;;;;1.00;99.90;;;;;;4989031;28;1179;-61
2022/12/11 13:53:40;;;;;;;;;;;1.00;99.90;;;;;;4991963;28;1244;-61
2022/12/11 13:56:06;;;;;;;;;;;1.00;99.90;;;;;;4990974;28;1206;-61
2022/12/11 13:58:34;;;;;;;;;;;1.00;99.90;;;;;;4991051;28;1886;-61
2022/12/11 14:01:00;;;;;;;;;;;1.00;99.90;;;;;;4991147;28;1377;-61
2022/12/11 14:03:26;;;;;;;;;;;1.00;99.90;;;;;;4988205;28;1477;-61
2022/12/11 14:05:52;;;;;;;;;;;1.00;99.90;;;;;;4990560;28;1301;-61
2022/12/11 14:08:22;;;;;;;;;;;1.00;99.90;;;;;;4991765;28;2015;-61
2022/12/11 14:10:52;;;;;;;;;;;1.00;99.90;;;;;;4990771;28;1241;-61
2022/12/11 14:13:22;;;;;;;;;;;1.10;99.90;;;;;;4989052;28;1395;-61
2022/12/11 14:15:49;;;;;;;;;;;1.10;99.90;;;;;;4990164;28;1438;-61
2022/12/11 14:18:17;;;;;;;;;;;1.10;99.90;;;;;;4991881;28;1435;-61
2022/12/11 14:20:43;;;;;;;;;;;1.10;99.90;;;;;;4992567;28;1217;-61
2022/12/11 14:23:15;;;;;;;;;;;1.10;99.90;;;;;;4990266;28;1289;-61
2022/12/11 14:25:41;;;;;;;;;;;1.10;99.90;;;;;;4989794;28;1214;-60
2022/12/11 14:28:15;;;;;;;;;;;1.10;99.90;;;;;;4990699;28;1906;-61
2022/12/11 14:30:45;;;;;;;;;;;1.10;99.90;;;;;;4991351;28;1282;-60
2022/12/11 14:33:12;;;;;;;;;;;1.10;99.90;;;;;;4990949;28;1222;-60
2022/12/11 14:35:40;;;;;;;;;;;1.00;99.90;;;;;;4989097;28;1704;-60
2022/12/11 14:38:12;;;;;;;;;;;1.00;99.90;;;;;;4990466;28;1340;-60
2022/12/11 14:40:40;;;;;;;;;;;1.00;99.90;;;;;;4991677;28;1319;-60
2022/12/11 14:43:10;;;;;;;;;;;1.00;99.90;;;;;;4986807;28;1367;-60
2022/12/11 14:45:38;;;;;;;;;;;1.00;99.90;;;;;;4990372;28;1083;-60
2022/12/11 14:48:14;;;;;;;;;;;1.00;99.90;;;;;;4989681;28;1910;-60
2022/12/11 14:50:46;;;;;;;;;;;1.00;99.90;;;;;;4989343;28;1371;-60
2022/12/11 14:53:14;;;;;;;;;;;1.00;99.90;;;;;;4990057;28;1210;-60